sensor_id;sensor_type;location;lat;lon;timestamp;P1;durP1;ratioP1;P2;durP2;ratioP2
42586;SDS011;28216;53.362;-6.288;2022-07-23T00:00:08;2.30;;;1.63;;
42586;SDS011;28216;53.362;-6.288;2022-07-23T00:02:34;4.57;;;1.80;;
42586;SDS011;28216;53.362;-6.288;2022-07-23T00:05:00;1.77;;;1.52;;
42586;SDS011;28216;53.362;-6.288;2022-07-23T00:07:26;1.70;;;1.60;;
42586;SDS011;28216;53.362;-6.288;2022-07-23T00:09:52;3.47;;;2.20;;
42586;SDS011;28216;53.362;-6.288;2022-07-23T00:12:17;3.80;;;2.20;;
42586;SDS011;28216;53.362;-6.288;2022-07-23T00:14:43;4.30;;;2.42;;
42586;SDS011;28216;53.362;-6.288;2022-07-23T00:17:08;4.53;;;2.28;;
42586;SDS011;28216;53.362;-6.288;2022-07-23T00:19:34;2.50;;;2.20;;
42586;SDS011;28216;53.362;-6.288;2022-07-23T00:21:59;3.17;;;2.10;;
42586;SDS011;28216;53.362;-6.288;2022-07-23T00:24:24;5.13;;;2.05;;
42586;SDS011;28216;53.362;-6.288;2022-07-23T00:26:50;4.05;;;1.88;;
42586;SDS011;28216;53.362;-6.288;2022-07-23T00:29:15;3.25;;;1.75;;
42586;SDS011;28216;53.362;-6.288;2022-07-23T00:31:41;2.70;;;1.63;;
42586;SDS011;28216;53.362;-6.288;2022-07-23T00:34:06;1.77;;;1.52;;
42586;SDS011;28216;53.362;-6.288;2022-07-23T00:36:32;1.98;;;1.58;;
42586;SDS011;28216;53.362;-6.288;2022-07-23T00:38:58;3.90;;;1.60;;
42586;SDS011;28216;53.362;-6.288;2022-07-23T00:41:23;1.83;;;1.60;;
42586;SDS011;28216;53.362;-6.288;2022-07-23T00:43:49;3.15;;;1.80;;
42586;SDS011;28216;53.362;-6.288;2022-07-23T00:46:21;1.73;;;1.50;;
42586;SDS011;28216;53.362;-6.288;2022-07-23T00:48:48;1.73;;;1.60;;
42586;SDS011;28216;53.362;-6.288;2022-07-23T00:51:17;1.77;;;1.60;;
42586;SDS011;28216;53.362;-6.288;2022-07-23T00:53:43;3.05;;;1.80;;
42586;SDS011;28216;53.362;-6.288;2022-07-23T00:56:09;2.95;;;2.05;;
42586;SDS011;28216;53.362;-6.288;2022-07-23T00:58:35;2.67;;;2.00;;
42586;SDS011;28216;53.362;-6.288;2022-07-23T01:01:02;4.03;;;2.05;;
42586;SDS011;28216;53.362;-6.288;2022-07-23T01:03:28;1.70;;;1.50;;
42586;SDS011;28216;53.362;-6.288;2022-07-23T01:05:53;2.65;;;1.90;;
42586;SDS011;28216;53.362;-6.288;2022-07-23T01:08:19;4.20;;;1.80;;
42586;SDS011;28216;53.362;-6.288;2022-07-23T01:10:45;1.98;;;1.80;;
42586;SDS011;28216;53.362;-6.288;2022-07-23T01:13:13;2.05;;;1.85;;
42586;SDS011;28216;53.362;-6.288;2022-07-23T01:15:38;2.00;;;1.90;;
42586;SDS011;28216;53.362;-6.288;2022-07-23T01:18:04;3.50;;;1.90;;
42586;SDS011;28216;53.362;-6.288;2022-07-23T01:20:31;2.40;;;1.77;;
42586;SDS011;28216;53.362;-6.288;2022-07-23T01:22:58;3.42;;;1.83;;
42586;SDS011;28216;53.362;-6.288;2022-07-23T01:25:23;2.45;;;2.15;;
42586;SDS011;28216;53.362;-6.288;2022-07-23T01:27:51;4.03;;;2.00;;
42586;SDS011;28216;53.362;-6.288;2022-07-23T01:30:17;2.40;;;1.85;;
42586;SDS011;28216;53.362;-6.288;2022-07-23T01:32:42;2.33;;;2.13;;
42586;SDS011;28216;53.362;-6.288;2022-07-23T01:35:08;3.13;;;2.30;;
42586;SDS011;28216;53.362;-6.288;2022-07-23T01:37:34;3.25;;;2.13;;
42586;SDS011;28216;53.362;-6.288;2022-07-23T01:40:00;2.38;;;2.10;;
42586;SDS011;28216;53.362;-6.288;2022-07-23T01:42:26;3.85;;;2.15;;
42586;SDS011;28216;53.362;-6.288;2022-07-23T01:44:51;3.33;;;2.75;;
42586;SDS011;28216;53.362;-6.288;2022-07-23T01:47:17;3.97;;;3.00;;
42586;SDS011;28216;53.362;-6.288;2022-07-23T01:49:42;3.40;;;3.10;;
42586;SDS011;28216;53.362;-6.288;2022-07-23T01:52:08;3.45;;;3.15;;
42586;SDS011;28216;53.362;-6.288;2022-07-23T01:54:36;4.22;;;3.55;;
42586;SDS011;28216;53.362;-6.288;2022-07-23T01:57:03;4.05;;;3.50;;
42586;SDS011;28216;53.362;-6.288;2022-07-23T01:59:29;7.15;;;3.30;;
42586;SDS011;28216;53.362;-6.288;2022-07-23T02:01:55;6.13;;;3.10;;
42586;SDS011;28216;53.362;-6.288;2022-07-23T02:04:21;3.72;;;3.00;;
42586;SDS011;28216;53.362;-6.288;2022-07-23T02:06:47;3.38;;;2.80;;
42586;SDS011;28216;53.362;-6.288;2022-07-23T02:09:13;3.05;;;2.65;;
42586;SDS011;28216;53.362;-6.288;2022-07-23T02:11:39;2.50;;;2.30;;
42586;SDS011;28216;53.362;-6.288;2022-07-23T02:14:05;3.47;;;2.35;;
42586;SDS011;28216;53.362;-6.288;2022-07-23T02:16:30;3.35;;;2.30;;
42586;SDS011;28216;53.362;-6.288;2022-07-23T02:18:56;2.45;;;2.25;;
42586;SDS011;28216;53.362;-6.288;2022-07-23T02:21:22;4.65;;;2.20;;
42586;SDS011;28216;53.362;-6.288;2022-07-23T02:23:48;2.60;;;2.40;;
42586;SDS011;28216;53.362;-6.288;2022-07-23T02:26:13;2.47;;;2.28;;
42586;SDS011;28216;53.362;-6.288;2022-07-23T02:28:38;4.40;;;2.67;;
42586;SDS011;28216;53.362;-6.288;2022-07-23T02:31:04;3.22;;;2.15;;
42586;SDS011;28216;53.362;-6.288;2022-07-23T02:33:31;3.05;;;1.88;;
42586;SDS011;28216;53.362;-6.288;2022-07-23T02:35:57;3.78;;;2.13;;
42586;SDS011;28216;53.362;-6.288;2022-07-23T02:38:22;2.83;;;2.08;;
42586;SDS011;28216;53.362;-6.288;2022-07-23T02:40:48;2.78;;;2.20;;
42586;SDS011;28216;53.362;-6.288;2022-07-23T02:43:13;3.17;;;2.17;;
42586;SDS011;28216;53.362;-6.288;2022-07-23T02:45:38;4.30;;;2.15;;
42586;SDS011;28216;53.362;-6.288;2022-07-23T02:48:04;2.85;;;2.13;;
42586;SDS011;28216;53.362;-6.288;2022-07-23T02:50:30;4.20;;;2.30;;
42586;SDS011;28216;53.362;-6.288;2022-07-23T02:52:55;2.75;;;2.25;;
42586;SDS011;28216;53.362;-6.288;2022-07-23T02:55:20;3.00;;;2.00;;
42586;SDS011;28216;53.362;-6.288;2022-07-23T02:57:46;2.05;;;1.85;;
42586;SDS011;28216;53.362;-6.288;2022-07-23T03:00:11;4.82;;;2.20;;
42586;SDS011;28216;53.362;-6.288;2022-07-23T03:02:37;2.92;;;2.33;;
42586;SDS011;28216;53.362;-6.288;2022-07-23T03:05:03;2.83;;;2.20;;
42586;SDS011;28216;53.362;-6.288;2022-07-23T03:07:29;3.13;;;2.13;;
42586;SDS011;28216;53.362;-6.288;2022-07-23T03:09:54;4.47;;;1.92;;
42586;SDS011;28216;53.362;-6.288;2022-07-23T03:12:20;4.15;;;2.25;;
42586;SDS011;28216;53.362;-6.288;2022-07-23T03:14:45;3.17;;;2.42;;
42586;SDS011;28216;53.362;-6.288;2022-07-23T03:17:11;2.88;;;2.40;;
42586;SDS011;28216;53.362;-6.288;2022-07-23T03:19:36;2.92;;;2.63;;
42586;SDS011;28216;53.362;-6.288;2022-07-23T03:22:02;2.47;;;2.28;;
42586;SDS011;28216;53.362;-6.288;2022-07-23T03:24:28;4.35;;;2.70;;
42586;SDS011;28216;53.362;-6.288;2022-07-23T03:27:12;3.92;;;2.50;;
42586;SDS011;28216;53.362;-6.288;2022-07-23T03:29:37;3.40;;;3.10;;
42586;SDS011;28216;53.362;-6.288;2022-07-23T03:32:03;2.85;;;2.55;;
42586;SDS011;28216;53.362;-6.288;2022-07-23T03:34:29;4.28;;;2.80;;
42586;SDS011;28216;53.362;-6.288;2022-07-23T03:36:54;4.65;;;3.47;;
42586;SDS011;28216;53.362;-6.288;2022-07-23T03:39:20;3.40;;;3.10;;
42586;SDS011;28216;53.362;-6.288;2022-07-23T03:41:45;3.58;;;3.20;;
42586;SDS011;28216;53.362;-6.288;2022-07-23T03:44:11;3.97;;;3.47;;
42586;SDS011;28216;53.362;-6.288;2022-07-23T03:46:36;3.30;;;3.00;;
42586;SDS011;28216;53.362;-6.288;2022-07-23T03:49:02;4.20;;;3.60;;
42586;SDS011;28216;53.362;-6.288;2022-07-23T03:51:27;4.22;;;3.42;;
42586;SDS011;28216;53.362;-6.288;2022-07-23T03:53:53;5.07;;;3.50;;
42586;SDS011;28216;53.362;-6.288;2022-07-23T03:56:19;4.07;;;3.40;;
42586;SDS011;28216;53.362;-6.288;2022-07-23T03:58:45;5.18;;;3.40;;
42586;SDS011;28216;53.362;-6.288;2022-07-23T04:01:10;4.72;;;3.40;;
42586;SDS011;28216;53.362;-6.288;2022-07-23T04:03:36;3.90;;;3.40;;
42586;SDS011;28216;53.362;-6.288;2022-07-23T04:06:01;5.22;;;3.38;;
42586;SDS011;28216;53.362;-6.288;2022-07-23T04:08:26;6.97;;;3.78;;
42586;SDS011;28216;53.362;-6.288;2022-07-23T04:10:52;5.18;;;3.47;;
42586;SDS011;28216;53.362;-6.288;2022-07-23T04:13:18;4.32;;;3.45;;
42586;SDS011;28216;53.362;-6.288;2022-07-23T04:15:43;4.57;;;3.30;;
42586;SDS011;28216;53.362;-6.288;2022-07-23T04:18:09;3.67;;;3.20;;
42586;SDS011;28216;53.362;-6.288;2022-07-23T04:20:34;4.57;;;3.20;;
42586;SDS011;28216;53.362;-6.288;2022-07-23T04:23:00;4.70;;;3.55;;
42586;SDS011;28216;53.362;-6.288;2022-07-23T04:25:25;3.88;;;3.40;;
42586;SDS011;28216;53.362;-6.288;2022-07-23T04:27:51;4.65;;;3.30;;
42586;SDS011;28216;53.362;-6.288;2022-07-23T04:30:16;4.00;;;3.60;;
42586;SDS011;28216;53.362;-6.288;2022-07-23T04:32:42;3.67;;;3.38;;
42586;SDS011;28216;53.362;-6.288;2022-07-23T04:35:07;4.75;;;3.60;;
42586;SDS011;28216;53.362;-6.288;2022-07-23T04:37:33;5.13;;;4.53;;
42586;SDS011;28216;53.362;-6.288;2022-07-23T04:39:58;5.30;;;3.60;;
42586;SDS011;28216;53.362;-6.288;2022-07-23T04:42:24;4.38;;;3.97;;
42586;SDS011;28216;53.362;-6.288;2022-07-23T04:44:49;4.63;;;3.88;;
42586;SDS011;28216;53.362;-6.288;2022-07-23T04:47:15;6.43;;;3.83;;
42586;SDS011;28216;53.362;-6.288;2022-07-23T04:49:40;5.15;;;4.03;;
42586;SDS011;28216;53.362;-6.288;2022-07-23T04:52:05;6.88;;;4.22;;
42586;SDS011;28216;53.362;-6.288;2022-07-23T04:54:31;4.72;;;4.05;;
42586;SDS011;28216;53.362;-6.288;2022-07-23T04:56:56;6.28;;;4.20;;
42586;SDS011;28216;53.362;-6.288;2022-07-23T04:59:22;7.75;;;4.38;;
42586;SDS011;28216;53.362;-6.288;2022-07-23T05:01:47;6.15;;;4.45;;
42586;SDS011;28216;53.362;-6.288;2022-07-23T05:04:13;5.65;;;3.92;;
42586;SDS011;28216;53.362;-6.288;2022-07-23T05:06:38;5.13;;;4.25;;
42586;SDS011;28216;53.362;-6.288;2022-07-23T05:09:04;4.40;;;3.70;;
42586;SDS011;28216;53.362;-6.288;2022-07-23T05:11:29;5.32;;;4.30;;
42586;SDS011;28216;53.362;-6.288;2022-07-23T05:13:54;7.18;;;4.07;;
42586;SDS011;28216;53.362;-6.288;2022-07-23T05:16:20;4.40;;;4.00;;
42586;SDS011;28216;53.362;-6.288;2022-07-23T05:18:45;4.18;;;3.47;;
42586;SDS011;28216;53.362;-6.288;2022-07-23T05:21:11;4.82;;;4.20;;
42586;SDS011;28216;53.362;-6.288;2022-07-23T05:23:36;7.00;;;5.30;;
42586;SDS011;28216;53.362;-6.288;2022-07-23T05:26:02;7.30;;;4.53;;
42586;SDS011;28216;53.362;-6.288;2022-07-23T05:28:27;5.47;;;4.90;;
42586;SDS011;28216;53.362;-6.288;2022-07-23T05:30:53;5.75;;;4.15;;
42586;SDS011;28216;53.362;-6.288;2022-07-23T05:33:19;5.47;;;4.10;;
42586;SDS011;28216;53.362;-6.288;2022-07-23T05:35:44;6.93;;;4.60;;
42586;SDS011;28216;53.362;-6.288;2022-07-23T05:38:10;6.07;;;4.82;;
42586;SDS011;28216;53.362;-6.288;2022-07-23T05:40:35;5.53;;;4.72;;
42586;SDS011;28216;53.362;-6.288;2022-07-23T05:43:01;7.50;;;4.97;;
42586;SDS011;28216;53.362;-6.288;2022-07-23T05:45:26;5.15;;;4.60;;
42586;SDS011;28216;53.362;-6.288;2022-07-23T05:47:52;9.98;;;5.30;;
42586;SDS011;28216;53.362;-6.288;2022-07-23T05:50:18;6.28;;;4.93;;
42586;SDS011;28216;53.362;-6.288;2022-07-23T05:52:43;6.00;;;5.00;;
42586;SDS011;28216;53.362;-6.288;2022-07-23T05:55:09;5.78;;;4.68;;
42586;SDS011;28216;53.362;-6.288;2022-07-23T05:57:37;7.07;;;4.78;;
42586;SDS011;28216;53.362;-6.288;2022-07-23T06:00:03;5.25;;;4.45;;
42586;SDS011;28216;53.362;-6.288;2022-07-23T06:02:30;5.45;;;4.50;;
42586;SDS011;28216;53.362;-6.288;2022-07-23T06:04:55;5.25;;;4.10;;
42586;SDS011;28216;53.362;-6.288;2022-07-23T06:07:21;4.65;;;4.15;;
42586;SDS011;28216;53.362;-6.288;2022-07-23T06:09:46;5.82;;;4.50;;
42586;SDS011;28216;53.362;-6.288;2022-07-23T06:12:14;5.78;;;4.60;;
42586;SDS011;28216;53.362;-6.288;2022-07-23T06:14:40;7.45;;;4.95;;
42586;SDS011;28216;53.362;-6.288;2022-07-23T06:17:05;7.18;;;4.88;;
42586;SDS011;28216;53.362;-6.288;2022-07-23T06:19:31;7.07;;;5.18;;
42586;SDS011;28216;53.362;-6.288;2022-07-23T06:21:56;5.22;;;4.30;;
42586;SDS011;28216;53.362;-6.288;2022-07-23T06:24:21;6.13;;;5.13;;
42586;SDS011;28216;53.362;-6.288;2022-07-23T06:26:47;6.55;;;4.30;;
42586;SDS011;28216;53.362;-6.288;2022-07-23T06:29:12;4.40;;;3.97;;
42586;SDS011;28216;53.362;-6.288;2022-07-23T06:31:38;7.55;;;4.30;;
42586;SDS011;28216;53.362;-6.288;2022-07-23T06:34:03;6.72;;;4.57;;
42586;SDS011;28216;53.362;-6.288;2022-07-23T06:36:29;6.07;;;4.22;;
42586;SDS011;28216;53.362;-6.288;2022-07-23T06:38:54;7.20;;;4.22;;
42586;SDS011;28216;53.362;-6.288;2022-07-23T06:41:20;4.57;;;4.05;;
42586;SDS011;28216;53.362;-6.288;2022-07-23T06:43:45;6.55;;;3.90;;
42586;SDS011;28216;53.362;-6.288;2022-07-23T06:46:11;6.00;;;4.63;;
42586;SDS011;28216;53.362;-6.288;2022-07-23T06:48:36;8.07;;;4.13;;
42586;SDS011;28216;53.362;-6.288;2022-07-23T06:51:02;5.97;;;4.13;;
42586;SDS011;28216;53.362;-6.288;2022-07-23T06:53:28;6.47;;;4.78;;
42586;SDS011;28216;53.362;-6.288;2022-07-23T06:55:53;7.75;;;4.90;;
42586;SDS011;28216;53.362;-6.288;2022-07-23T06:58:19;5.00;;;4.57;;
42586;SDS011;28216;53.362;-6.288;2022-07-23T07:00:45;5.47;;;4.70;;
42586;SDS011;28216;53.362;-6.288;2022-07-23T07:03:11;6.97;;;5.20;;
42586;SDS011;28216;53.362;-6.288;2022-07-23T07:05:36;7.38;;;5.35;;
42586;SDS011;28216;53.362;-6.288;2022-07-23T07:08:02;6.88;;;4.78;;
42586;SDS011;28216;53.362;-6.288;2022-07-23T07:10:27;6.97;;;5.18;;
42586;SDS011;28216;53.362;-6.288;2022-07-23T07:12:53;7.00;;;5.65;;
42586;SDS011;28216;53.362;-6.288;2022-07-23T07:15:18;6.03;;;4.85;;
42586;SDS011;28216;53.362;-6.288;2022-07-23T07:17:44;6.32;;;4.75;;
42586;SDS011;28216;53.362;-6.288;2022-07-23T07:20:09;7.03;;;5.00;;
42586;SDS011;28216;53.362;-6.288;2022-07-23T07:22:36;7.00;;;4.55;;
42586;SDS011;28216;53.362;-6.288;2022-07-23T07:25:02;6.85;;;4.70;;
42586;SDS011;28216;53.362;-6.288;2022-07-23T07:27:27;7.72;;;5.18;;
42586;SDS011;28216;53.362;-6.288;2022-07-23T07:29:53;6.90;;;5.07;;
42586;SDS011;28216;53.362;-6.288;2022-07-23T07:32:18;7.38;;;5.38;;
42586;SDS011;28216;53.362;-6.288;2022-07-23T07:34:43;5.97;;;5.30;;
42586;SDS011;28216;53.362;-6.288;2022-07-23T07:37:09;6.10;;;5.50;;
42586;SDS011;28216;53.362;-6.288;2022-07-23T07:39:34;8.10;;;5.57;;
42586;SDS011;28216;53.362;-6.288;2022-07-23T07:42:00;6.10;;;5.50;;
42586;SDS011;28216;53.362;-6.288;2022-07-23T07:44:25;6.20;;;4.90;;
42586;SDS011;28216;53.362;-6.288;2022-07-23T07:46:51;6.97;;;4.90;;
42586;SDS011;28216;53.362;-6.288;2022-07-23T07:49:16;5.15;;;4.45;;
42586;SDS011;28216;53.362;-6.288;2022-07-23T07:51:44;5.47;;;4.53;;
42586;SDS011;28216;53.362;-6.288;2022-07-23T07:54:10;8.60;;;4.68;;
42586;SDS011;28216;53.362;-6.288;2022-07-23T07:56:35;6.28;;;4.20;;
42586;SDS011;28216;53.362;-6.288;2022-07-23T07:59:01;6.20;;;4.57;;
42586;SDS011;28216;53.362;-6.288;2022-07-23T08:01:26;5.80;;;3.75;;
42586;SDS011;28216;53.362;-6.288;2022-07-23T08:03:52;4.72;;;3.95;;
42586;SDS011;28216;53.362;-6.288;2022-07-23T08:06:17;4.45;;;4.05;;
42586;SDS011;28216;53.362;-6.288;2022-07-23T08:08:43;4.80;;;3.90;;
42586;SDS011;28216;53.362;-6.288;2022-07-23T08:11:08;9.30;;;3.97;;
42586;SDS011;28216;53.362;-6.288;2022-07-23T08:13:34;4.82;;;4.00;;
42586;SDS011;28216;53.362;-6.288;2022-07-23T08:15:59;6.07;;;3.75;;
42586;SDS011;28216;53.362;-6.288;2022-07-23T08:18:25;4.57;;;4.07;;
42586;SDS011;28216;53.362;-6.288;2022-07-23T08:20:50;4.10;;;3.80;;
42586;SDS011;28216;53.362;-6.288;2022-07-23T08:23:16;4.50;;;3.67;;
42586;SDS011;28216;53.362;-6.288;2022-07-23T08:25:44;6.32;;;4.10;;
42586;SDS011;28216;53.362;-6.288;2022-07-23T08:28:10;4.75;;;3.70;;
42586;SDS011;28216;53.362;-6.288;2022-07-23T08:30:37;5.47;;;3.67;;
42586;SDS011;28216;53.362;-6.288;2022-07-23T08:33:05;4.03;;;3.53;;
42586;SDS011;28216;53.362;-6.288;2022-07-23T08:35:36;5.28;;;3.30;;
42586;SDS011;28216;53.362;-6.288;2022-07-23T08:38:06;8.40;;;3.35;;
42586;SDS011;28216;53.362;-6.288;2022-07-23T08:40:34;3.92;;;3.50;;
42586;SDS011;28216;53.362;-6.288;2022-07-23T08:43:08;5.28;;;3.83;;
42586;SDS011;28216;53.362;-6.288;2022-07-23T08:45:36;4.95;;;3.50;;
42586;SDS011;28216;53.362;-6.288;2022-07-23T08:48:07;5.30;;;3.17;;
42586;SDS011;28216;53.362;-6.288;2022-07-23T08:50:36;3.75;;;2.50;;
42586;SDS011;28216;53.362;-6.288;2022-07-23T08:53:02;2.60;;;2.40;;
42586;SDS011;28216;53.362;-6.288;2022-07-23T08:55:31;2.20;;;2.00;;
42586;SDS011;28216;53.362;-6.288;2022-07-23T08:57:56;2.00;;;1.88;;
42586;SDS011;28216;53.362;-6.288;2022-07-23T09:00:22;3.05;;;1.83;;
42586;SDS011;28216;53.362;-6.288;2022-07-23T09:02:48;2.05;;;1.83;;
42586;SDS011;28216;53.362;-6.288;2022-07-23T09:05:15;3.70;;;2.50;;
42586;SDS011;28216;53.362;-6.288;2022-07-23T09:10:32;5.40;;;3.92;;
42586;SDS011;28216;53.362;-6.288;2022-07-23T09:15:51;4.63;;;3.20;;
42586;SDS011;28216;53.362;-6.288;2022-07-23T09:18:18;4.10;;;3.42;;
42586;SDS011;28216;53.362;-6.288;2022-07-23T09:20:44;4.13;;;3.00;;
42586;SDS011;28216;53.362;-6.288;2022-07-23T09:23:10;3.10;;;2.80;;
42586;SDS011;28216;53.362;-6.288;2022-07-23T09:25:35;3.72;;;3.42;;
42586;SDS011;28216;53.362;-6.288;2022-07-23T09:28:00;4.88;;;3.63;;
42586;SDS011;28216;53.362;-6.288;2022-07-23T09:30:30;3.88;;;3.38;;
42586;SDS011;28216;53.362;-6.288;2022-07-23T09:33:14;6.15;;;3.78;;
42586;SDS011;28216;53.362;-6.288;2022-07-23T09:35:50;5.03;;;3.97;;
42586;SDS011;28216;53.362;-6.288;2022-07-23T09:38:18;9.38;;;6.35;;
42586;SDS011;28216;53.362;-6.288;2022-07-23T09:40:46;11.15;;;6.45;;
42586;SDS011;28216;53.362;-6.288;2022-07-23T09:43:31;11.82;;;7.13;;
42586;SDS011;28216;53.362;-6.288;2022-07-23T09:46:16;14.38;;;6.40;;
42586;SDS011;28216;53.362;-6.288;2022-07-23T09:48:43;12.30;;;6.75;;
42586;SDS011;28216;53.362;-6.288;2022-07-23T09:51:09;14.27;;;6.85;;
42586;SDS011;28216;53.362;-6.288;2022-07-23T09:53:34;9.45;;;6.05;;
42586;SDS011;28216;53.362;-6.288;2022-07-23T09:55:59;12.30;;;6.72;;
42586;SDS011;28216;53.362;-6.288;2022-07-23T09:58:26;11.75;;;6.45;;
42586;SDS011;28216;53.362;-6.288;2022-07-23T10:00:52;13.95;;;7.00;;
42586;SDS011;28216;53.362;-6.288;2022-07-23T10:03:18;10.63;;;5.90;;
42586;SDS011;28216;53.362;-6.288;2022-07-23T10:05:45;10.02;;;6.57;;
42586;SDS011;28216;53.362;-6.288;2022-07-23T10:08:13;9.55;;;5.70;;
42586;SDS011;28216;53.362;-6.288;2022-07-23T10:10:41;10.38;;;5.50;;
42586;SDS011;28216;53.362;-6.288;2022-07-23T10:13:08;8.63;;;5.50;;
42586;SDS011;28216;53.362;-6.288;2022-07-23T10:15:53;7.15;;;4.88;;
42586;SDS011;28216;53.362;-6.288;2022-07-23T10:18:19;8.52;;;5.20;;
42586;SDS011;28216;53.362;-6.288;2022-07-23T10:20:45;8.13;;;4.78;;
42586;SDS011;28216;53.362;-6.288;2022-07-23T10:31:45;1.80;;;1.50;;
42586;SDS011;28216;53.362;-6.288;2022-07-23T10:37:21;1.88;;;1.50;;
42586;SDS011;28216;53.362;-6.288;2022-07-23T10:40:14;1.95;;;1.52;;
42586;SDS011;28216;53.362;-6.288;2022-07-23T10:42:42;1.95;;;1.40;;
42586;SDS011;28216;53.362;-6.288;2022-07-23T10:48:16;2.13;;;1.40;;
42586;SDS011;28216;53.362;-6.288;2022-07-23T10:50:43;3.72;;;1.70;;
42586;SDS011;28216;53.362;-6.288;2022-07-23T10:53:11;2.50;;;1.58;;
42586;SDS011;28216;53.362;-6.288;2022-07-23T10:55:46;1.63;;;1.48;;
42586;SDS011;28216;53.362;-6.288;2022-07-23T10:58:18;3.22;;;1.27;;
42586;SDS011;28216;53.362;-6.288;2022-07-23T11:00:45;1.75;;;1.35;;
42586;SDS011;28216;53.362;-6.288;2022-07-23T11:03:31;2.53;;;1.40;;
42586;SDS011;28216;53.362;-6.288;2022-07-23T11:06:00;2.35;;;1.38;;
42586;SDS011;28216;53.362;-6.288;2022-07-23T11:08:26;1.95;;;1.40;;
42586;SDS011;28216;53.362;-6.288;2022-07-23T11:10:53;2.67;;;1.73;;
42586;SDS011;28216;53.362;-6.288;2022-07-23T11:26:49;3.63;;;2.05;;
42586;SDS011;28216;53.362;-6.288;2022-07-23T11:34:53;3.83;;;2.10;;
42586;SDS011;28216;53.362;-6.288;2022-07-23T11:40:03;3.42;;;1.20;;
42586;SDS011;28216;53.362;-6.288;2022-07-23T11:42:32;1.40;;;1.30;;
42586;SDS011;28216;53.362;-6.288;2022-07-23T11:44:59;2.33;;;1.20;;
42586;SDS011;28216;53.362;-6.288;2022-07-23T11:47:25;1.33;;;1.23;;
42586;SDS011;28216;53.362;-6.288;2022-07-23T11:49:55;2.08;;;0.98;;
42586;SDS011;28216;53.362;-6.288;2022-07-23T11:52:25;2.90;;;1.20;;
42586;SDS011;28216;53.362;-6.288;2022-07-23T11:54:56;1.33;;;1.20;;
42586;SDS011;28216;53.362;-6.288;2022-07-23T11:57:28;1.27;;;1.13;;
42586;SDS011;28216;53.362;-6.288;2022-07-23T12:00:32;1.73;;;1.37;;
42586;SDS011;28216;53.362;-6.288;2022-07-23T12:02:53;1.40;;;1.30;;
42586;SDS011;28216;53.362;-6.288;2022-07-23T12:05:22;1.30;;;1.20;;
42586;SDS011;28216;53.362;-6.288;2022-07-23T12:07:50;2.95;;;1.10;;
42586;SDS011;28216;53.362;-6.288;2022-07-23T12:10:24;1.10;;;1.00;;
42586;SDS011;28216;53.362;-6.288;2022-07-23T12:12:52;1.05;;;1.00;;
42586;SDS011;28216;53.362;-6.288;2022-07-23T12:15:39;1.00;;;1.00;;
42586;SDS011;28216;53.362;-6.288;2022-07-23T12:18:07;2.80;;;1.10;;
42586;SDS011;28216;53.362;-6.288;2022-07-23T12:20:38;1.45;;;1.30;;
42586;SDS011;28216;53.362;-6.288;2022-07-23T12:23:12;1.40;;;1.30;;
42586;SDS011;28216;53.362;-6.288;2022-07-23T12:25:39;1.10;;;1.00;;
42586;SDS011;28216;53.362;-6.288;2022-07-23T12:28:11;1.00;;;1.00;;
42586;SDS011;28216;53.362;-6.288;2022-07-23T12:30:39;1.20;;;1.10;;
42586;SDS011;28216;53.362;-6.288;2022-07-23T12:33:09;2.55;;;1.50;;
42586;SDS011;28216;53.362;-6.288;2022-07-23T12:35:40;1.95;;;1.40;;
42586;SDS011;28216;53.362;-6.288;2022-07-23T12:38:08;1.40;;;1.30;;
42586;SDS011;28216;53.362;-6.288;2022-07-23T12:40:43;1.02;;;1.02;;
42586;SDS011;28216;53.362;-6.288;2022-07-23T12:43:10;2.17;;;1.10;;
42586;SDS011;28216;53.362;-6.288;2022-07-23T12:48:08;1.20;;;1.10;;
42586;SDS011;28216;53.362;-6.288;2022-07-23T12:50:44;1.60;;;1.10;;
42586;SDS011;28216;53.362;-6.288;2022-07-23T12:53:16;1.02;;;0.80;;
42586;SDS011;28216;53.362;-6.288;2022-07-23T12:55:44;1.38;;;0.85;;
42586;SDS011;28216;53.362;-6.288;2022-07-23T12:58:14;1.00;;;1.00;;
42586;SDS011;28216;53.362;-6.288;2022-07-23T13:01:15;0.80;;;0.80;;
42586;SDS011;28216;53.362;-6.288;2022-07-23T13:03:36;0.90;;;0.90;;
42586;SDS011;28216;53.362;-6.288;2022-07-23T13:06:05;0.85;;;0.85;;
42586;SDS011;28216;53.362;-6.288;2022-07-23T13:08:32;0.90;;;0.90;;
42586;SDS011;28216;53.362;-6.288;2022-07-23T13:10:59;0.80;;;0.80;;
42586;SDS011;28216;53.362;-6.288;2022-07-23T13:13:36;5.65;;;1.25;;
42586;SDS011;28216;53.362;-6.288;2022-07-23T13:16:02;1.20;;;0.90;;
42586;SDS011;28216;53.362;-6.288;2022-07-23T13:18:28;0.90;;;0.90;;
42586;SDS011;28216;53.362;-6.288;2022-07-23T13:20:54;1.02;;;0.90;;
42586;SDS011;28216;53.362;-6.288;2022-07-23T13:23:20;2.15;;;1.10;;
42586;SDS011;28216;53.362;-6.288;2022-07-23T13:25:46;1.10;;;1.00;;
42586;SDS011;28216;53.362;-6.288;2022-07-23T13:28:13;2.28;;;1.10;;
42586;SDS011;28216;53.362;-6.288;2022-07-23T13:30:42;1.35;;;0.93;;
42586;SDS011;28216;53.362;-6.288;2022-07-23T13:33:08;1.35;;;1.00;;
42586;SDS011;28216;53.362;-6.288;2022-07-23T13:35:35;4.28;;;1.13;;
42586;SDS011;28216;53.362;-6.288;2022-07-23T13:38:02;1.45;;;1.10;;
42586;SDS011;28216;53.362;-6.288;2022-07-23T13:40:28;1.55;;;1.40;;
42586;SDS011;28216;53.362;-6.288;2022-07-23T13:42:54;2.00;;;1.20;;
42586;SDS011;28216;53.362;-6.288;2022-07-23T13:45:20;2.78;;;1.50;;
42586;SDS011;28216;53.362;-6.288;2022-07-23T13:47:46;4.40;;;1.58;;
42586;SDS011;28216;53.362;-6.288;2022-07-23T13:50:12;2.78;;;1.50;;
42586;SDS011;28216;53.362;-6.288;2022-07-23T13:52:37;3.47;;;1.65;;
42586;SDS011;28216;53.362;-6.288;2022-07-23T13:55:04;2.72;;;1.30;;
42586;SDS011;28216;53.362;-6.288;2022-07-23T13:57:30;3.97;;;1.35;;
42586;SDS011;28216;53.362;-6.288;2022-07-23T13:59:57;3.28;;;1.30;;
42586;SDS011;28216;53.362;-6.288;2022-07-23T14:02:23;1.48;;;0.98;;
42586;SDS011;28216;53.362;-6.288;2022-07-23T14:04:49;3.67;;;1.70;;
42586;SDS011;28216;53.362;-6.288;2022-07-23T14:07:15;3.85;;;1.23;;
42586;SDS011;28216;53.362;-6.288;2022-07-23T14:09:40;4.55;;;1.35;;
42586;SDS011;28216;53.362;-6.288;2022-07-23T14:12:06;2.13;;;1.27;;
42586;SDS011;28216;53.362;-6.288;2022-07-23T14:14:32;1.75;;;1.20;;
42586;SDS011;28216;53.362;-6.288;2022-07-23T14:16:58;2.63;;;1.15;;
42586;SDS011;28216;53.362;-6.288;2022-07-23T14:19:24;1.52;;;1.40;;
42586;SDS011;28216;53.362;-6.288;2022-07-23T14:21:49;2.65;;;1.40;;
42586;SDS011;28216;53.362;-6.288;2022-07-23T14:24:15;1.95;;;1.25;;
42586;SDS011;28216;53.362;-6.288;2022-07-23T14:26:41;3.03;;;1.30;;
42586;SDS011;28216;53.362;-6.288;2022-07-23T14:29:07;2.78;;;1.30;;
42586;SDS011;28216;53.362;-6.288;2022-07-23T14:31:32;2.78;;;1.30;;
42586;SDS011;28216;53.362;-6.288;2022-07-23T14:33:58;2.30;;;1.40;;
42586;SDS011;28216;53.362;-6.288;2022-07-23T14:36:29;2.20;;;1.20;;
42586;SDS011;28216;53.362;-6.288;2022-07-23T14:39:03;2.38;;;1.17;;
42586;SDS011;28216;53.362;-6.288;2022-07-23T14:42:06;2.28;;;1.38;;
42586;SDS011;28216;53.362;-6.288;2022-07-23T14:44:57;2.70;;;1.13;;
42586;SDS011;28216;53.362;-6.288;2022-07-23T15:18:01;1.08;;;0.98;;
42586;SDS011;28216;53.362;-6.288;2022-07-23T15:25:59;0.95;;;0.95;;
42586;SDS011;28216;53.362;-6.288;2022-07-23T15:28:51;0.80;;;0.80;;
42586;SDS011;28216;53.362;-6.288;2022-07-23T15:32:02;2.25;;;0.90;;
42586;SDS011;28216;53.362;-6.288;2022-07-23T15:34:40;0.98;;;0.98;;
42586;SDS011;28216;53.362;-6.288;2022-07-23T15:37:08;1.10;;;1.10;;
42586;SDS011;28216;53.362;-6.288;2022-07-23T15:39:33;0.95;;;0.95;;
42586;SDS011;28216;53.362;-6.288;2022-07-23T15:41:59;1.20;;;1.00;;
42586;SDS011;28216;53.362;-6.288;2022-07-23T15:44:25;1.00;;;1.00;;
42586;SDS011;28216;53.362;-6.288;2022-07-23T15:46:51;2.05;;;0.90;;
42586;SDS011;28216;53.362;-6.288;2022-07-23T15:49:16;1.00;;;0.90;;
42586;SDS011;28216;53.362;-6.288;2022-07-23T15:51:42;1.00;;;1.00;;
42586;SDS011;28216;53.362;-6.288;2022-07-23T15:54:07;2.50;;;1.05;;